sensor_id;sensor_type;location;lat;lon;timestamp;P1;durP1;ratioP1;P2;durP2;ratioP2
1721;SDS011;858;53.190;8.596;2022-07-24T00:01:10;5.55;;;5.05;;
1721;SDS011;858;53.190;8.596;2022-07-24T00:03:38;5.90;;;5.40;;
1721;SDS011;858;53.190;8.596;2022-07-24T00:06:05;6.88;;;5.03;;
1721;SDS011;858;53.190;8.596;2022-07-24T00:08:31;5.70;;;5.10;;
1721;SDS011;858;53.190;8.596;2022-07-24T00:10:57;4.90;;;4.50;;
1721;SDS011;858;53.190;8.596;2022-07-24T00:13:24;6.03;;;5.43;;
1721;SDS011;858;53.190;8.596;2022-07-24T00:15:50;5.15;;;4.65;;
1721;SDS011;858;53.190;8.596;2022-07-24T00:18:17;6.55;;;5.05;;
1721;SDS011;858;53.190;8.596;2022-07-24T00:20:44;5.13;;;4.72;;
1721;SDS011;858;53.190;8.596;2022-07-24T00:23:11;4.90;;;4.40;;
1721;SDS011;858;53.190;8.596;2022-07-24T00:25:38;4.50;;;4.07;;
1721;SDS011;858;53.190;8.596;2022-07-24T00:28:04;4.90;;;4.50;;
1721;SDS011;858;53.190;8.596;2022-07-24T00:30:31;4.90;;;4.50;;
1721;SDS011;858;53.190;8.596;2022-07-24T00:32:57;5.50;;;5.00;;
1721;SDS011;858;53.190;8.596;2022-07-24T00:35:23;5.43;;;4.90;;
1721;SDS011;858;53.190;8.596;2022-07-24T00:37:51;9.43;;;5.20;;
1721;SDS011;858;53.190;8.596;2022-07-24T00:40:18;4.88;;;4.38;;
1721;SDS011;858;53.190;8.596;2022-07-24T00:42:44;5.22;;;4.72;;
1721;SDS011;858;53.190;8.596;2022-07-24T00:45:11;5.28;;;4.78;;
1721;SDS011;858;53.190;8.596;2022-07-24T00:47:37;4.93;;;4.50;;
1721;SDS011;858;53.190;8.596;2022-07-24T00:50:04;5.00;;;4.50;;
1721;SDS011;858;53.190;8.596;2022-07-24T00:52:31;4.43;;;4.13;;
1721;SDS011;858;53.190;8.596;2022-07-24T00:54:59;4.72;;;4.03;;
1721;SDS011;858;53.190;8.596;2022-07-24T00:57:25;4.80;;;4.40;;
1721;SDS011;858;53.190;8.596;2022-07-24T00:59:51;5.72;;;4.35;;
1721;SDS011;858;53.190;8.596;2022-07-24T01:02:18;4.95;;;4.20;;
1721;SDS011;858;53.190;8.596;2022-07-24T01:04:44;4.20;;;3.75;;
1721;SDS011;858;53.190;8.596;2022-07-24T01:07:11;5.10;;;4.60;;
1721;SDS011;858;53.190;8.596;2022-07-24T01:09:37;6.20;;;4.70;;
1721;SDS011;858;53.190;8.596;2022-07-24T01:12:05;4.93;;;4.40;;
1721;SDS011;858;53.190;8.596;2022-07-24T01:14:32;5.70;;;4.43;;
1721;SDS011;858;53.190;8.596;2022-07-24T01:16:58;5.00;;;4.50;;
1721;SDS011;858;53.190;8.596;2022-07-24T01:19:25;7.53;;;5.15;;
1721;SDS011;858;53.190;8.596;2022-07-24T01:21:53;4.53;;;4.13;;
1721;SDS011;858;53.190;8.596;2022-07-24T01:24:20;6.05;;;4.65;;
1721;SDS011;858;53.190;8.596;2022-07-24T01:26:47;7.13;;;4.70;;
1721;SDS011;858;53.190;8.596;2022-07-24T01:29:14;5.20;;;4.70;;
1721;SDS011;858;53.190;8.596;2022-07-24T01:31:40;5.00;;;4.50;;
1721;SDS011;858;53.190;8.596;2022-07-24T01:34:07;5.10;;;4.60;;
1721;SDS011;858;53.190;8.596;2022-07-24T01:36:35;4.90;;;4.50;;
1721;SDS011;858;53.190;8.596;2022-07-24T01:39:03;6.93;;;5.30;;
1721;SDS011;858;53.190;8.596;2022-07-24T01:41:29;5.28;;;4.60;;
1721;SDS011;858;53.190;8.596;2022-07-24T01:43:56;4.90;;;4.40;;
1721;SDS011;858;53.190;8.596;2022-07-24T01:46:22;6.28;;;4.55;;
1721;SDS011;858;53.190;8.596;2022-07-24T01:48:48;4.95;;;4.50;;
1721;SDS011;858;53.190;8.596;2022-07-24T01:51:15;5.95;;;4.40;;
1721;SDS011;858;53.190;8.596;2022-07-24T01:53:41;5.93;;;5.00;;
1721;SDS011;858;53.190;8.596;2022-07-24T01:56:09;4.60;;;4.20;;
1721;SDS011;858;53.190;8.596;2022-07-24T01:58:35;7.32;;;5.40;;
1721;SDS011;858;53.190;8.596;2022-07-24T02:01:04;5.85;;;5.07;;
1721;SDS011;858;53.190;8.596;2022-07-24T02:03:30;7.13;;;4.75;;
1721;SDS011;858;53.190;8.596;2022-07-24T02:05:57;5.53;;;4.95;;
1721;SDS011;858;53.190;8.596;2022-07-24T02:08:23;5.80;;;5.30;;
1721;SDS011;858;53.190;8.596;2022-07-24T02:10:50;6.25;;;5.20;;
1721;SDS011;858;53.190;8.596;2022-07-24T02:13:18;5.90;;;5.07;;
1721;SDS011;858;53.190;8.596;2022-07-24T02:15:44;6.90;;;5.40;;
1721;SDS011;858;53.190;8.596;2022-07-24T02:18:11;5.60;;;5.00;;
1721;SDS011;858;53.190;8.596;2022-07-24T02:20:37;6.97;;;5.10;;
1721;SDS011;858;53.190;8.596;2022-07-24T02:23:03;5.30;;;4.50;;
1721;SDS011;858;53.190;8.596;2022-07-24T02:25:30;7.93;;;5.22;;
1721;SDS011;858;53.190;8.596;2022-07-24T02:27:56;6.07;;;5.47;;
1721;SDS011;858;53.190;8.596;2022-07-24T02:30:24;6.85;;;5.40;;
1721;SDS011;858;53.190;8.596;2022-07-24T02:32:50;6.77;;;6.07;;
1721;SDS011;858;53.190;8.596;2022-07-24T02:35:17;8.98;;;5.80;;
1721;SDS011;858;53.190;8.596;2022-07-24T02:37:44;6.63;;;5.60;;
1721;SDS011;858;53.190;8.596;2022-07-24T02:40:11;8.18;;;5.60;;
1721;SDS011;858;53.190;8.596;2022-07-24T02:42:38;8.18;;;5.95;;
1721;SDS011;858;53.190;8.596;2022-07-24T02:45:05;7.63;;;5.97;;
1721;SDS011;858;53.190;8.596;2022-07-24T02:47:33;6.07;;;5.25;;
1721;SDS011;858;53.190;8.596;2022-07-24T02:49:59;8.50;;;5.93;;
1721;SDS011;858;53.190;8.596;2022-07-24T02:52:26;8.20;;;6.40;;
1721;SDS011;858;53.190;8.596;2022-07-24T02:54:53;7.80;;;6.50;;
1721;SDS011;858;53.190;8.596;2022-07-24T02:57:19;7.97;;;6.68;;
1721;SDS011;858;53.190;8.596;2022-07-24T02:59:45;6.63;;;5.93;;
1721;SDS011;858;53.190;8.596;2022-07-24T03:02:16;8.95;;;6.53;;
1721;SDS011;858;53.190;8.596;2022-07-24T03:04:44;6.40;;;5.80;;
1721;SDS011;858;53.190;8.596;2022-07-24T03:07:10;6.93;;;5.50;;
1721;SDS011;858;53.190;8.596;2022-07-24T03:09:37;8.63;;;5.83;;
1721;SDS011;858;53.190;8.596;2022-07-24T03:12:03;8.77;;;5.45;;
1721;SDS011;858;53.190;8.596;2022-07-24T03:14:30;6.90;;;5.75;;
1721;SDS011;858;53.190;8.596;2022-07-24T03:16:57;9.07;;;5.70;;
1721;SDS011;858;53.190;8.596;2022-07-24T03:19:25;6.30;;;5.03;;
1721;SDS011;858;53.190;8.596;2022-07-24T03:21:52;8.30;;;5.55;;
1721;SDS011;858;53.190;8.596;2022-07-24T03:24:19;7.05;;;5.70;;
1721;SDS011;858;53.190;8.596;2022-07-24T03:26:45;6.45;;;5.40;;
1721;SDS011;858;53.190;8.596;2022-07-24T03:29:11;6.03;;;5.28;;
1721;SDS011;858;53.190;8.596;2022-07-24T03:31:38;5.93;;;5.20;;
1721;SDS011;858;53.190;8.596;2022-07-24T03:34:04;8.18;;;6.45;;
1721;SDS011;858;53.190;8.596;2022-07-24T03:36:31;6.37;;;5.03;;
1721;SDS011;858;53.190;8.596;2022-07-24T03:38:59;5.60;;;4.78;;
1721;SDS011;858;53.190;8.596;2022-07-24T03:41:25;6.35;;;5.30;;
1721;SDS011;858;53.190;8.596;2022-07-24T03:43:51;6.88;;;4.70;;
1721;SDS011;858;53.190;8.596;2022-07-24T03:46:18;6.50;;;5.68;;
1721;SDS011;858;53.190;8.596;2022-07-24T03:48:44;5.63;;;5.03;;
1721;SDS011;858;53.190;8.596;2022-07-24T03:51:11;5.40;;;4.90;;
1721;SDS011;858;53.190;8.596;2022-07-24T03:53:37;7.55;;;4.80;;
1721;SDS011;858;53.190;8.596;2022-07-24T03:56:05;5.40;;;4.40;;
1721;SDS011;858;53.190;8.596;2022-07-24T03:58:32;7.75;;;5.10;;
1721;SDS011;858;53.190;8.596;2022-07-24T04:00:58;6.53;;;4.60;;
1721;SDS011;858;53.190;8.596;2022-07-24T04:03:25;7.30;;;4.88;;
1721;SDS011;858;53.190;8.596;2022-07-24T04:05:51;5.10;;;4.32;;
1721;SDS011;858;53.190;8.596;2022-07-24T04:08:17;5.78;;;4.50;;
1721;SDS011;858;53.190;8.596;2022-07-24T04:10:44;5.95;;;4.80;;
1721;SDS011;858;53.190;8.596;2022-07-24T04:13:12;7.45;;;5.20;;
1721;SDS011;858;53.190;8.596;2022-07-24T04:15:38;6.75;;;4.63;;
1721;SDS011;858;53.190;8.596;2022-07-24T04:18:05;6.47;;;4.90;;
1721;SDS011;858;53.190;8.596;2022-07-24T04:20:31;6.40;;;4.70;;
1721;SDS011;858;53.190;8.596;2022-07-24T04:22:58;6.45;;;4.80;;
1721;SDS011;858;53.190;8.596;2022-07-24T04:25:24;5.63;;;5.13;;
1721;SDS011;858;53.190;8.596;2022-07-24T04:27:51;7.07;;;4.97;;
1721;SDS011;858;53.190;8.596;2022-07-24T04:30:18;4.85;;;4.40;;
1721;SDS011;858;53.190;8.596;2022-07-24T04:32:45;5.20;;;4.70;;
1721;SDS011;858;53.190;8.596;2022-07-24T04:35:11;8.40;;;5.20;;
1721;SDS011;858;53.190;8.596;2022-07-24T04:37:38;6.38;;;4.20;;
1721;SDS011;858;53.190;8.596;2022-07-24T04:40:04;6.70;;;4.80;;
1721;SDS011;858;53.190;8.596;2022-07-24T04:42:31;5.55;;;4.35;;
1721;SDS011;858;53.190;8.596;2022-07-24T04:44:57;5.72;;;4.38;;
1721;SDS011;858;53.190;8.596;2022-07-24T04:47:25;5.60;;;4.35;;
1721;SDS011;858;53.190;8.596;2022-07-24T04:49:51;5.03;;;4.60;;
1721;SDS011;858;53.190;8.596;2022-07-24T04:52:18;5.20;;;4.10;;
1721;SDS011;858;53.190;8.596;2022-07-24T04:54:44;5.28;;;4.30;;
1721;SDS011;858;53.190;8.596;2022-07-24T04:57:11;4.80;;;4.30;;
1721;SDS011;858;53.190;8.596;2022-07-24T04:59:37;5.80;;;4.53;;
1721;SDS011;858;53.190;8.596;2022-07-24T05:02:03;7.60;;;4.70;;
1721;SDS011;858;53.190;8.596;2022-07-24T05:04:31;6.60;;;4.60;;
1721;SDS011;858;53.190;8.596;2022-07-24T05:06:59;5.65;;;4.50;;
1721;SDS011;858;53.190;8.596;2022-07-24T05:09:26;7.32;;;4.63;;
1721;SDS011;858;53.190;8.596;2022-07-24T05:11:52;6.55;;;4.50;;
1721;SDS011;858;53.190;8.596;2022-07-24T05:14:19;8.40;;;4.10;;
1721;SDS011;858;53.190;8.596;2022-07-24T05:16:45;6.22;;;4.63;;
1721;SDS011;858;53.190;8.596;2022-07-24T05:19:11;4.93;;;4.50;;
1721;SDS011;858;53.190;8.596;2022-07-24T05:21:39;4.80;;;4.10;;
1721;SDS011;858;53.190;8.596;2022-07-24T05:24:06;5.20;;;4.40;;
1721;SDS011;858;53.190;8.596;2022-07-24T05:26:32;5.43;;;4.40;;
1721;SDS011;858;53.190;8.596;2022-07-24T05:29:00;6.20;;;4.65;;
1721;SDS011;858;53.190;8.596;2022-07-24T05:31:26;7.83;;;4.10;;
1721;SDS011;858;53.190;8.596;2022-07-24T05:33:53;4.90;;;4.40;;
1721;SDS011;858;53.190;8.596;2022-07-24T05:36:20;4.70;;;4.13;;
1721;SDS011;858;53.190;8.596;2022-07-24T05:38:48;5.30;;;4.43;;
1721;SDS011;858;53.190;8.596;2022-07-24T05:41:14;5.32;;;4.25;;
1721;SDS011;858;53.190;8.596;2022-07-24T05:43:41;4.70;;;4.30;;
1721;SDS011;858;53.190;8.596;2022-07-24T05:46:07;4.28;;;3.88;;
1721;SDS011;858;53.190;8.596;2022-07-24T05:48:33;7.05;;;5.40;;
1721;SDS011;858;53.190;8.596;2022-07-24T05:51:00;5.60;;;4.78;;
1721;SDS011;858;53.190;8.596;2022-07-24T05:53:27;5.07;;;4.57;;
1721;SDS011;858;53.190;8.596;2022-07-24T05:55:54;6.38;;;4.80;;
1721;SDS011;858;53.190;8.596;2022-07-24T05:58:21;6.43;;;4.45;;
1721;SDS011;858;53.190;8.596;2022-07-24T06:00:47;5.00;;;4.55;;
1721;SDS011;858;53.190;8.596;2022-07-24T06:03:15;5.40;;;4.90;;
1721;SDS011;858;53.190;8.596;2022-07-24T06:05:41;6.63;;;5.00;;
1721;SDS011;858;53.190;8.596;2022-07-24T06:08:08;5.28;;;4.78;;
1721;SDS011;858;53.190;8.596;2022-07-24T06:10:35;4.40;;;4.00;;
1721;SDS011;858;53.190;8.596;2022-07-24T06:13:04;5.90;;;4.55;;
1721;SDS011;858;53.190;8.596;2022-07-24T06:15:30;5.20;;;4.22;;
1721;SDS011;858;53.190;8.596;2022-07-24T06:17:56;5.20;;;4.00;;
1721;SDS011;858;53.190;8.596;2022-07-24T06:20:23;4.32;;;3.92;;
1721;SDS011;858;53.190;8.596;2022-07-24T06:22:49;4.75;;;4.28;;
1721;SDS011;858;53.190;8.596;2022-07-24T06:25:16;8.50;;;4.30;;
1721;SDS011;858;53.190;8.596;2022-07-24T06:27:44;5.65;;;4.03;;
1721;SDS011;858;53.190;8.596;2022-07-24T06:30:16;4.43;;;4.03;;
1721;SDS011;858;53.190;8.596;2022-07-24T06:32:42;5.70;;;4.45;;
1721;SDS011;858;53.190;8.596;2022-07-24T06:35:09;4.85;;;4.10;;
1721;SDS011;858;53.190;8.596;2022-07-24T06:37:35;5.25;;;4.15;;
1721;SDS011;858;53.190;8.596;2022-07-24T06:40:02;4.47;;;3.83;;
1721;SDS011;858;53.190;8.596;2022-07-24T06:42:29;4.28;;;3.88;;
1721;SDS011;858;53.190;8.596;2022-07-24T06:44:56;4.88;;;4.38;;
1721;SDS011;858;53.190;8.596;2022-07-24T06:47:23;4.90;;;4.13;;
1721;SDS011;858;53.190;8.596;2022-07-24T06:49:51;4.63;;;4.13;;
1721;SDS011;858;53.190;8.596;2022-07-24T06:52:17;7.13;;;4.35;;
1721;SDS011;858;53.190;8.596;2022-07-24T06:54:44;6.22;;;3.88;;
1721;SDS011;858;53.190;8.596;2022-07-24T06:57:10;6.97;;;4.10;;
1721;SDS011;858;53.190;8.596;2022-07-24T06:59:37;5.18;;;4.00;;
1721;SDS011;858;53.190;8.596;2022-07-24T07:02:03;4.57;;;3.70;;
1721;SDS011;858;53.190;8.596;2022-07-24T07:04:31;4.35;;;3.90;;
1721;SDS011;858;53.190;8.596;2022-07-24T07:06:58;5.43;;;3.70;;
1721;SDS011;858;53.190;8.596;2022-07-24T07:09:24;4.25;;;3.85;;
1721;SDS011;858;53.190;8.596;2022-07-24T07:11:50;5.22;;;3.60;;
1721;SDS011;858;53.190;8.596;2022-07-24T07:14:17;5.25;;;3.75;;
1721;SDS011;858;53.190;8.596;2022-07-24T07:16:43;4.72;;;3.90;;
1721;SDS011;858;53.190;8.596;2022-07-24T07:19:10;5.32;;;3.83;;
1721;SDS011;858;53.190;8.596;2022-07-24T07:21:38;5.72;;;3.60;;
1721;SDS011;858;53.190;8.596;2022-07-24T07:24:04;5.13;;;3.83;;
1721;SDS011;858;53.190;8.596;2022-07-24T07:26:31;3.75;;;3.40;;
1721;SDS011;858;53.190;8.596;2022-07-24T07:28:57;5.10;;;3.50;;
1721;SDS011;858;53.190;8.596;2022-07-24T07:31:24;6.40;;;3.90;;
1721;SDS011;858;53.190;8.596;2022-07-24T07:33:51;3.90;;;3.50;;
1721;SDS011;858;53.190;8.596;2022-07-24T07:36:17;4.22;;;3.55;;
1721;SDS011;858;53.190;8.596;2022-07-24T07:38:45;6.28;;;3.70;;
1721;SDS011;858;53.190;8.596;2022-07-24T07:41:11;4.03;;;3.00;;
1721;SDS011;858;53.190;8.596;2022-07-24T07:43:38;4.15;;;3.40;;
1721;SDS011;858;53.190;8.596;2022-07-24T07:46:06;6.20;;;3.87;;
1721;SDS011;858;53.190;8.596;2022-07-24T07:48:32;4.00;;;3.60;;
1721;SDS011;858;53.190;8.596;2022-07-24T07:50:59;5.13;;;3.70;;
1721;SDS011;858;53.190;8.596;2022-07-24T07:53:25;5.82;;;3.90;;
1721;SDS011;858;53.190;8.596;2022-07-24T07:55:53;4.95;;;4.30;;
1721;SDS011;858;53.190;8.596;2022-07-24T07:58:19;4.00;;;3.60;;
1721;SDS011;858;53.190;8.596;2022-07-24T08:00:47;4.20;;;3.80;;
1721;SDS011;858;53.190;8.596;2022-07-24T08:03:14;6.60;;;4.50;;
1721;SDS011;858;53.190;8.596;2022-07-24T08:05:40;4.15;;;3.83;;
1721;SDS011;858;53.190;8.596;2022-07-24T08:08:07;5.50;;;4.10;;
1721;SDS011;858;53.190;8.596;2022-07-24T08:10:33;5.38;;;4.00;;
1721;SDS011;858;53.190;8.596;2022-07-24T08:13:04;4.65;;;4.03;;
1721;SDS011;858;53.190;8.596;2022-07-24T08:15:30;4.43;;;3.92;;
1721;SDS011;858;53.190;8.596;2022-07-24T08:17:57;7.30;;;4.90;;
1721;SDS011;858;53.190;8.596;2022-07-24T08:20:25;5.30;;;4.70;;
1721;SDS011;858;53.190;8.596;2022-07-24T08:22:52;5.90;;;5.10;;
1721;SDS011;858;53.190;8.596;2022-07-24T08:25:18;6.30;;;4.78;;
1721;SDS011;858;53.190;8.596;2022-07-24T08:27:44;5.00;;;4.50;;
1721;SDS011;858;53.190;8.596;2022-07-24T08:30:13;6.10;;;5.50;;
1721;SDS011;858;53.190;8.596;2022-07-24T08:32:40;5.78;;;5.18;;
1721;SDS011;858;53.190;8.596;2022-07-24T08:35:06;7.10;;;5.40;;
1721;SDS011;858;53.190;8.596;2022-07-24T08:37:34;5.88;;;4.90;;
1721;SDS011;858;53.190;8.596;2022-07-24T08:40:01;5.00;;;4.50;;
1721;SDS011;858;53.190;8.596;2022-07-24T08:42:27;8.75;;;6.10;;
1721;SDS011;858;53.190;8.596;2022-07-24T08:44:53;8.00;;;6.10;;
1721;SDS011;858;53.190;8.596;2022-07-24T08:47:21;6.97;;;5.95;;
1721;SDS011;858;53.190;8.596;2022-07-24T08:49:48;6.57;;;5.97;;
1721;SDS011;858;53.190;8.596;2022-07-24T08:52:18;6.25;;;5.53;;
1721;SDS011;858;53.190;8.596;2022-07-24T08:54:47;8.25;;;6.00;;
1721;SDS011;858;53.190;8.596;2022-07-24T08:57:13;6.30;;;5.40;;
1721;SDS011;858;53.190;8.596;2022-07-24T08:59:40;6.05;;;5.45;;
1721;SDS011;858;53.190;8.596;2022-07-24T09:02:06;5.95;;;5.25;;
1721;SDS011;858;53.190;8.596;2022-07-24T09:04:36;6.30;;;5.70;;
1721;SDS011;858;53.190;8.596;2022-07-24T09:07:03;6.03;;;5.40;;
1721;SDS011;858;53.190;8.596;2022-07-24T09:09:30;6.38;;;5.78;;
1721;SDS011;858;53.190;8.596;2022-07-24T09:12:03;9.52;;;5.72;;
1721;SDS011;858;53.190;8.596;2022-07-24T09:14:30;6.45;;;5.70;;
1721;SDS011;858;53.190;8.596;2022-07-24T09:17:00;7.07;;;6.38;;
1721;SDS011;858;53.190;8.596;2022-07-24T09:19:27;6.90;;;5.95;;
1721;SDS011;858;53.190;8.596;2022-07-24T09:21:55;6.28;;;5.68;;
1721;SDS011;858;53.190;8.596;2022-07-24T09:24:22;7.07;;;5.90;;
1721;SDS011;858;53.190;8.596;2022-07-24T09:26:49;6.90;;;6.20;;
1721;SDS011;858;53.190;8.596;2022-07-24T09:29:16;7.75;;;6.60;;
1721;SDS011;858;53.190;8.596;2022-07-24T09:31:53;8.67;;;7.50;;
1721;SDS011;858;53.190;8.596;2022-07-24T09:34:20;8.40;;;7.30;;
1721;SDS011;858;53.190;8.596;2022-07-24T09:36:58;7.90;;;6.90;;
1721;SDS011;858;53.190;8.596;2022-07-24T09:39:25;7.75;;;6.45;;
1721;SDS011;858;53.190;8.596;2022-07-24T09:41:52;9.67;;;7.40;;
1721;SDS011;858;53.190;8.596;2022-07-24T09:44:19;7.60;;;6.57;;
1721;SDS011;858;53.190;8.596;2022-07-24T09:46:46;7.00;;;6.40;;
1721;SDS011;858;53.190;8.596;2022-07-24T09:49:18;7.22;;;6.63;;
1721;SDS011;858;53.190;8.596;2022-07-24T09:51:45;9.27;;;7.45;;
1721;SDS011;858;53.190;8.596;2022-07-24T09:54:34;7.93;;;7.17;;
1721;SDS011;858;53.190;8.596;2022-07-24T09:57:13;8.98;;;7.38;;
1721;SDS011;858;53.190;8.596;2022-07-24T09:59:40;8.15;;;7.35;;
1721;SDS011;858;53.190;8.596;2022-07-24T10:02:06;8.57;;;7.78;;
1721;SDS011;858;53.190;8.596;2022-07-24T10:04:34;7.70;;;6.47;;
1721;SDS011;858;53.190;8.596;2022-07-24T10:07:01;8.00;;;7.20;;
1721;SDS011;858;53.190;8.596;2022-07-24T10:09:28;8.50;;;7.10;;
1721;SDS011;858;53.190;8.596;2022-07-24T10:11:56;6.82;;;6.22;;
1721;SDS011;858;53.190;8.596;2022-07-24T10:14:23;8.10;;;7.30;;
1721;SDS011;858;53.190;8.596;2022-07-24T10:16:52;8.90;;;7.07;;
1721;SDS011;858;53.190;8.596;2022-07-24T10:19:24;6.75;;;6.13;;
1721;SDS011;858;53.190;8.596;2022-07-24T10:21:55;9.48;;;7.72;;
1721;SDS011;858;53.190;8.596;2022-07-24T10:24:38;8.85;;;7.80;;
1721;SDS011;858;53.190;8.596;2022-07-24T10:27:24;7.90;;;7.10;;
1721;SDS011;858;53.190;8.596;2022-07-24T10:29:51;8.00;;;7.20;;
1721;SDS011;858;53.190;8.596;2022-07-24T10:32:18;8.50;;;7.70;;
1721;SDS011;858;53.190;8.596;2022-07-24T10:34:45;7.72;;;6.80;;
1721;SDS011;858;53.190;8.596;2022-07-24T10:37:15;7.65;;;6.90;;
1721;SDS011;858;53.190;8.596;2022-07-24T10:39:47;7.32;;;6.18;;
1721;SDS011;858;53.190;8.596;2022-07-24T10:42:17;7.88;;;7.07;;
1721;SDS011;858;53.190;8.596;2022-07-24T10:44:45;7.40;;;6.70;;
1721;SDS011;858;53.190;8.596;2022-07-24T10:47:32;7.78;;;7.07;;
1721;SDS011;858;53.190;8.596;2022-07-24T10:49:58;7.80;;;7.03;;
1721;SDS011;858;53.190;8.596;2022-07-24T10:52:26;9.00;;;7.30;;
1721;SDS011;858;53.190;8.596;2022-07-24T10:57:47;7.67;;;7.07;;
1721;SDS011;858;53.190;8.596;2022-07-24T11:00:22;6.90;;;6.40;;
1721;SDS011;858;53.190;8.596;2022-07-24T11:02:54;7.10;;;6.50;;
1721;SDS011;858;53.190;8.596;2022-07-24T11:05:23;7.30;;;6.60;;
1721;SDS011;858;53.190;8.596;2022-07-24T11:10:46;7.20;;;6.47;;
1721;SDS011;858;53.190;8.596;2022-07-24T11:16:19;7.88;;;7.13;;
1721;SDS011;858;53.190;8.596;2022-07-24T11:21:31;7.70;;;7.00;;
1721;SDS011;858;53.190;8.596;2022-07-24T11:24:14;7.50;;;6.70;;
1721;SDS011;858;53.190;8.596;2022-07-24T11:26:45;8.20;;;7.10;;
1721;SDS011;858;53.190;8.596;2022-07-24T11:29:12;7.60;;;6.90;;
1721;SDS011;858;53.190;8.596;2022-07-24T11:31:41;7.53;;;6.72;;
1721;SDS011;858;53.190;8.596;2022-07-24T11:34:08;8.40;;;7.47;;
1721;SDS011;858;53.190;8.596;2022-07-24T11:36:35;7.10;;;6.20;;
1721;SDS011;858;53.190;8.596;2022-07-24T11:39:02;8.23;;;7.43;;
1721;SDS011;858;53.190;8.596;2022-07-24T11:41:28;7.50;;;6.70;;
1721;SDS011;858;53.190;8.596;2022-07-24T11:44:08;7.70;;;7.00;;
1721;SDS011;858;53.190;8.596;2022-07-24T11:46:35;7.03;;;6.43;;
1721;SDS011;858;53.190;8.596;2022-07-24T11:49:04;8.45;;;6.90;;
1721;SDS011;858;53.190;8.596;2022-07-24T11:51:31;7.88;;;7.18;;
1721;SDS011;858;53.190;8.596;2022-07-24T11:53:58;7.60;;;6.90;;
1721;SDS011;858;53.190;8.596;2022-07-24T11:56:28;7.80;;;7.00;;
1721;SDS011;858;53.190;8.596;2022-07-24T11:58:55;8.17;;;6.73;;
1721;SDS011;858;53.190;8.596;2022-07-24T12:01:22;7.70;;;7.00;;
1721;SDS011;858;53.190;8.596;2022-07-24T12:03:49;7.97;;;7.20;;
1721;SDS011;858;53.190;8.596;2022-07-24T12:06:17;7.90;;;7.10;;
1721;SDS011;858;53.190;8.596;2022-07-24T12:08:43;8.32;;;7.40;;
1721;SDS011;858;53.190;8.596;2022-07-24T12:11:10;8.32;;;7.07;;
1721;SDS011;858;53.190;8.596;2022-07-24T12:13:40;7.40;;;6.70;;
1721;SDS011;858;53.190;8.596;2022-07-24T12:16:07;7.30;;;6.60;;
1721;SDS011;858;53.190;8.596;2022-07-24T12:18:33;7.85;;;7.15;;
1721;SDS011;858;53.190;8.596;2022-07-24T12:21:00;8.55;;;7.85;;
1721;SDS011;858;53.190;8.596;2022-07-24T12:23:28;8.23;;;7.53;;
1721;SDS011;858;53.190;8.596;2022-07-24T12:25:55;8.13;;;7.32;;
1721;SDS011;858;53.190;8.596;2022-07-24T12:28:22;8.80;;;7.90;;
1721;SDS011;858;53.190;8.596;2022-07-24T12:30:49;8.33;;;7.63;;
1721;SDS011;858;53.190;8.596;2022-07-24T12:33:19;8.60;;;7.80;;
1721;SDS011;858;53.190;8.596;2022-07-24T12:35:54;8.57;;;7.72;;
1721;SDS011;858;53.190;8.596;2022-07-24T12:38:26;8.10;;;7.40;;
1721;SDS011;858;53.190;8.596;2022-07-24T12:41:02;8.63;;;7.60;;
1721;SDS011;858;53.190;8.596;2022-07-24T12:43:29;7.75;;;7.00;;
1721;SDS011;858;53.190;8.596;2022-07-24T12:46:04;7.97;;;7.28;;
1721;SDS011;858;53.190;8.596;2022-07-24T12:48:30;9.43;;;7.38;;
1721;SDS011;858;53.190;8.596;2022-07-24T12:51:05;7.80;;;7.00;;
1721;SDS011;858;53.190;8.596;2022-07-24T12:53:34;7.50;;;6.90;;
1721;SDS011;858;53.190;8.596;2022-07-24T12:56:04;7.30;;;6.70;;
1721;SDS011;858;53.190;8.596;2022-07-24T13:01:12;6.88;;;6.28;;
1721;SDS011;858;53.190;8.596;2022-07-24T13:03:39;7.30;;;6.60;;
1721;SDS011;858;53.190;8.596;2022-07-24T13:06:06;7.15;;;6.45;;
1721;SDS011;858;53.190;8.596;2022-07-24T13:08:32;6.18;;;5.68;;
1721;SDS011;858;53.190;8.596;2022-07-24T13:11:00;7.10;;;6.40;;
1721;SDS011;858;53.190;8.596;2022-07-24T13:13:29;7.50;;;6.90;;
1721;SDS011;858;53.190;8.596;2022-07-24T13:15:55;7.13;;;6.53;;
1721;SDS011;858;53.190;8.596;2022-07-24T13:18:21;7.63;;;6.93;;
1721;SDS011;858;53.190;8.596;2022-07-24T13:20:48;7.85;;;7.15;;
1721;SDS011;858;53.190;8.596;2022-07-24T13:23:14;7.10;;;6.40;;
1721;SDS011;858;53.190;8.596;2022-07-24T13:25:41;7.07;;;6.38;;
1721;SDS011;858;53.190;8.596;2022-07-24T13:28:09;6.57;;;5.97;;
1721;SDS011;858;53.190;8.596;2022-07-24T13:30:37;7.93;;;7.00;;
1721;SDS011;858;53.190;8.596;2022-07-24T13:33:03;10.13;;;7.00;;
1721;SDS011;858;53.190;8.596;2022-07-24T13:35:30;7.37;;;6.77;;
1721;SDS011;858;53.190;8.596;2022-07-24T13:37:56;8.47;;;6.83;;
1721;SDS011;858;53.190;8.596;2022-07-24T13:40:23;6.80;;;6.20;;
1721;SDS011;858;53.190;8.596;2022-07-24T13:42:49;7.20;;;6.38;;
1721;SDS011;858;53.190;8.596;2022-07-24T13:45:15;8.55;;;6.80;;
1721;SDS011;858;53.190;8.596;2022-07-24T13:47:43;8.20;;;7.40;;
1721;SDS011;858;53.190;8.596;2022-07-24T13:50:09;7.80;;;6.10;;
1721;SDS011;858;53.190;8.596;2022-07-24T13:52:36;6.30;;;5.70;;
1721;SDS011;858;53.190;8.596;2022-07-24T13:55:02;7.25;;;6.35;;
1721;SDS011;858;53.190;8.596;2022-07-24T13:57:29;7.13;;;6.43;;
1721;SDS011;858;53.190;8.596;2022-07-24T13:59:55;6.78;;;6.18;;
1721;SDS011;858;53.190;8.596;2022-07-24T14:02:22;6.50;;;6.00;;
1721;SDS011;858;53.190;8.596;2022-07-24T14:04:49;6.97;;;6.38;;
1721;SDS011;858;53.190;8.596;2022-07-24T14:07:16;6.75;;;6.15;;
1721;SDS011;858;53.190;8.596;2022-07-24T14:09:42;7.38;;;6.57;;
1721;SDS011;858;53.190;8.596;2022-07-24T14:12:08;6.53;;;5.90;;
1721;SDS011;858;53.190;8.596;2022-07-24T14:14:36;7.00;;;6.40;;
1721;SDS011;858;53.190;8.596;2022-07-24T14:17:02;6.78;;;5.70;;
1721;SDS011;858;53.190;8.596;2022-07-24T14:19:29;6.63;;;6.03;;
1721;SDS011;858;53.190;8.596;2022-07-24T14:21:56;7.10;;;6.20;;
1721;SDS011;858;53.190;8.596;2022-07-24T14:24:23;7.20;;;5.90;;
1721;SDS011;858;53.190;8.596;2022-07-24T14:26:49;6.80;;;6.10;;
1721;SDS011;858;53.190;8.596;2022-07-24T14:29:16;7.10;;;6.40;;
1721;SDS011;858;53.190;8.596;2022-07-24T14:31:42;7.00;;;6.30;;
1721;SDS011;858;53.190;8.596;2022-07-24T14:34:08;6.93;;;6.10;;
1721;SDS011;858;53.190;8.596;2022-07-24T14:36:34;6.77;;;5.50;;
1721;SDS011;858;53.190;8.596;2022-07-24T14:39:03;5.60;;;5.00;;
1721;SDS011;858;53.190;8.596;2022-07-24T14:41:29;6.97;;;5.70;;
1721;SDS011;858;53.190;8.596;2022-07-24T14:43:56;6.30;;;5.55;;
1721;SDS011;858;53.190;8.596;2022-07-24T14:46:22;6.55;;;5.78;;
1721;SDS011;858;53.190;8.596;2022-07-24T14:48:49;6.75;;;6.10;;
1721;SDS011;858;53.190;8.596;2022-07-24T14:51:15;6.70;;;6.10;;
1721;SDS011;858;53.190;8.596;2022-07-24T14:53:43;6.05;;;5.50;;
1721;SDS011;858;53.190;8.596;2022-07-24T14:56:11;6.50;;;5.90;;
1721;SDS011;858;53.190;8.596;2022-07-24T14:58:38;7.53;;;6.25;;
1721;SDS011;858;53.190;8.596;2022-07-24T15:01:04;6.53;;;5.93;;
1721;SDS011;858;53.190;8.596;2022-07-24T15:03:31;6.80;;;6.13;;
1721;SDS011;858;53.190;8.596;2022-07-24T15:05:57;6.50;;;5.90;;
1721;SDS011;858;53.190;8.596;2022-07-24T15:08:23;6.60;;;5.97;;
1721;SDS011;858;53.190;8.596;2022-07-24T15:10:51;6.50;;;5.90;;
1721;SDS011;858;53.190;8.596;2022-07-24T15:13:19;8.10;;;6.30;;
1721;SDS011;858;53.190;8.596;2022-07-24T15:15:45;6.82;;;5.70;;
1721;SDS011;858;53.190;8.596;2022-07-24T15:18:11;7.20;;;5.50;;
1721;SDS011;858;53.190;8.596;2022-07-24T15:20:38;6.50;;;5.90;;
1721;SDS011;858;53.190;8.596;2022-07-24T15:23:05;6.67;;;5.97;;
1721;SDS011;858;53.190;8.596;2022-07-24T15:25:31;6.30;;;5.70;;
1721;SDS011;858;53.190;8.596;2022-07-24T15:27:58;5.97;;;5.47;;
1721;SDS011;858;53.190;8.596;2022-07-24T15:30:26;6.25;;;5.65;;
1721;SDS011;858;53.190;8.596;2022-07-24T15:32:54;6.40;;;5.90;;
1721;SDS011;858;53.190;8.596;2022-07-24T15:35:20;6.70;;;6.00;;
1721;SDS011;858;53.190;8.596;2022-07-24T15:37:48;7.03;;;6.43;;
1721;SDS011;858;53.190;8.596;2022-07-24T15:40:15;7.15;;;6.55;;
1721;SDS011;858;53.190;8.596;2022-07-24T15:42:41;6.88;;;6.38;;
1721;SDS011;858;53.190;8.596;2022-07-24T15:45:08;6.90;;;6.30;;